KSNA/SNA METAR and TAF weather

Enter ICAO airport designator
Station Type Date Time Source
KSNA METAR 2020/01/28 20:53 UTC NOAA

KSNA 282053Z 22004KT 10SM BKN250 22/07 A3011 RMK AO2 SLP197 T02220067 58024


Station Type Date Time Source
KSNA Decoded METAR 2020/01/28 20:53 UTC NOAA

SANTA ANA WAYNE ORANGE CTY, CA, United States (KSNA) 33-41N 117-52W 15M
Jan 28, 2020 - 03:53 PM EST / 2020.01.28 2053 UTC
Wind: from the SW (220 degrees) at 5 MPH (4 KT):0
Visibility: 10 mile(s):0
Sky conditions: mostly cloudy
Temperature: 72.0 F (22.2 C)
Dew Point: 44.1 F (6.7 C)
Relative Humidity: 36%
Pressure (altimeter): 30.11 in. Hg (1019 hPa)
Pressure tendency: 0.07 inches (2.4 hPa) lower than three hours ago
ob: KSNA 282053Z 22004KT 10SM BKN250 22/07 A3011 RMK AO2 SLP197 T02220067 58024
cycle: 21

Station Type Date Time Source
KSNA TAF 2020/01/28 18:42 UTC NOAA

TAF KSNA 281739Z 2818/2918 23006KT P6SM FEW250
FM291700 04009KT P6SM FEW250

Example: see airport list